Time;durP1;ratioP1;P1;durP2;ratioP2;P2;SDS_P1;SDS_P2;PMS_P1;PMS_P2;Temp;Humidity;BMP_temperature;BMP_pressure;BME280_temperature;BME280_humidity;BME280_pressure;Samples;Min_cycle;Max_cycle;Signal;HPM_P1;HPM_P2
2021/10/18 00:01:08;;;;;;;60.75;25.75;;;8.40;83.80;;;6.72;93.33;96584.84;4960000;28;20031;-69
2021/10/18 00:03:33;;;;;;;46.78;25.55;;;8.30;83.70;;;6.70;92.82;96587.59;4971202;28;20081;-69
2021/10/18 00:05:59;;;;;;;61.05;26.33;;;8.40;83.70;;;6.66;92.73;96588.88;5000655;28;20042;-69
2021/10/18 00:08:25;;;;;;;29.98;26.27;;;8.40;83.60;;;6.67;92.19;96598.38;4960371;28;20400;-69
2021/10/18 00:10:51;;;;;;;47.75;27.77;;;8.40;83.50;;;6.62;92.79;96590.16;4982394;28;20096;-69
2021/10/18 00:13:17;;;;;;;217.65;26.75;;;8.30;83.70;;;6.59;93.09;96598.31;4978397;28;20046;-69
2021/10/18 00:15:42;;;;;;;92.40;27.67;;;8.20;83.30;;;6.54;92.51;96597.94;4997196;28;20037;-69
2021/10/18 00:18:08;;;;;;;39.95;26.05;;;8.20;83.90;;;6.51;93.19;96597.41;4973722;28;20035;-69
2021/10/18 00:20:34;;;;;;;29.88;26.85;;;8.20;83.90;;;6.53;92.59;96605.91;4978235;28;20581;-69
2021/10/18 00:23:00;;;;;;;133.80;28.00;;;8.20;84.00;;;6.52;92.68;96609.50;4949395;28;20026;-70
2021/10/18 00:25:25;;;;;;;29.17;26.13;;;8.10;83.90;;;6.49;92.95;96609.81;4949587;28;20138;-70
2021/10/18 00:27:51;;;;;;;30.70;25.88;;;8.10;84.00;;;6.48;93.43;96609.00;4993390;28;20038;-70
2021/10/18 00:30:17;;;;;;;49.38;22.65;;;8.20;83.70;;;6.43;92.75;96606.84;4972187;28;20081;-70
2021/10/18 00:32:42;;;;;;;34.58;22.63;;;8.20;83.60;;;6.48;93.32;96608.16;4982946;28;20404;-71
2021/10/18 00:35:08;;;;;;;25.08;22.60;;;8.20;83.50;;;6.50;92.61;96607.03;5017349;28;20076;-71
2021/10/18 00:37:34;;;;;;;66.60;22.65;;;8.20;83.50;;;6.51;92.73;96600.84;5005383;28;20038;-70
2021/10/18 00:40:00;;;;;;;27.92;22.60;;;8.20;83.20;;;6.51;91.57;96606.06;4978082;28;20509;-70
2021/10/18 00:42:26;;;;;;;28.70;25.95;;;8.20;83.20;;;6.50;92.18;96603.59;5002120;28;20516;-70
2021/10/18 00:44:51;;;;;;;30.35;26.83;;;8.20;83.20;;;6.49;92.02;96605.41;4976218;28;20518;-70
2021/10/18 00:47:18;;;;;;;53.97;26.35;;;8.20;83.30;;;6.48;92.25;96603.75;5003496;28;20125;-70
2021/10/18 00:49:44;;;;;;;75.65;25.50;;;8.20;83.30;;;6.49;92.21;96600.19;4963725;28;20050;-70
2021/10/18 00:52:10;;;;;;;48.45;24.83;;;8.20;83.50;;;6.49;92.78;96608.03;4975789;28;20113;-70
2021/10/18 00:54:36;;;;;;;129.75;27.15;;;8.20;83.70;;;6.48;92.69;96600.34;4957082;28;20073;-70
2021/10/18 00:57:01;;;;;;;68.25;27.27;;;8.20;83.80;;;6.47;92.74;96601.31;4963538;28;20042;-70
2021/10/18 00:59:27;;;;;;;60.70;28.25;;;8.20;83.90;;;6.45;93.32;96599.66;4972584;28;20100;-70
2021/10/18 01:01:53;;;;;;;87.43;28.17;;;8.20;84.20;;;6.49;93.58;96605.41;4978464;28;20037;-71
2021/10/18 01:04:19;;;;;;;177.15;30.25;;;8.20;84.20;;;6.49;93.36;96605.41;4973896;28;20038;-70
2021/10/18 01:06:45;;;;;;;45.08;29.05;;;8.20;84.50;;;6.52;93.12;96607.72;4994602;28;20422;-71
2021/10/18 01:09:10;;;;;;;47.53;31.35;;;8.20;84.80;;;6.49;93.77;96600.19;4991879;28;20076;-70
2021/10/18 01:11:36;;;;;;;85.68;32.90;;;8.20;84.80;;;6.50;94.11;96607.03;4972251;28;20065;-70
2021/10/18 01:14:02;;;;;;;150.07;30.90;;;8.30;85.00;;;6.52;94.24;96599.88;4972551;28;20038;-70
2021/10/18 01:16:28;;;;;;;121.13;32.17;;;8.20;85.00;;;6.54;95.21;96605.78;4969226;28;20041;-70
2021/10/18 01:18:53;;;;;;;124.40;32.92;;;8.30;85.20;;;6.54;94.68;96597.09;4959513;28;20038;-70
2021/10/18 01:21:19;;;;;;;131.50;35.28;;;8.30;85.10;;;6.52;95.54;96599.88;4954670;28;20085;-70
2021/10/18 01:23:45;;;;;;;79.68;62.88;;;8.20;85.30;;;6.54;95.55;96590.09;4975315;28;20092;-70
2021/10/18 01:26:10;;;;;;;73.55;41.28;;;8.40;85.30;;;6.58;95.50;96601.09;4971878;28;20098;-71
2021/10/18 01:28:36;;;;;;;58.30;35.47;;;8.30;85.30;;;6.60;95.45;96591.28;4977319;28;20035;-70
2021/10/18 01:31:02;;;;;;;65.07;32.83;;;8.40;85.40;;;6.60;95.87;96581.66;4988154;28;20038;-70
2021/10/18 01:33:28;;;;;;;72.80;32.30;;;8.40;85.20;;;6.63;96.33;96583.97;4977598;28;20502;-70
2021/10/18 01:35:53;;;;;;;57.47;32.70;;;8.40;85.30;;;6.65;95.26;96582.00;5005390;28;20034;-70
2021/10/18 01:38:19;;;;;;;57.30;32.05;;;8.50;85.30;;;6.68;96.03;96583.50;4972923;28;20035;-71
2021/10/18 01:40:45;;;;;;;59.55;33.13;;;8.50;85.30;;;6.67;96.15;96582.69;4988241;28;20084;-70
2021/10/18 01:43:10;;;;;;;143.98;34.40;;;8.50;85.10;;;6.69;95.43;96596.41;4972974;28;20022;-70
2021/10/18 01:45:36;;;;;;;89.55;33.72;;;8.50;85.20;;;6.71;95.91;96589.25;4980018;28;20050;-70
2021/10/18 01:48:02;;;;;;;48.22;33.65;;;8.50;85.30;;;6.71;96.13;96594.47;4972017;28;20092;-70
2021/10/18 01:50:29;;;;;;;104.85;34.75;;;8.50;85.30;;;6.74;95.92;96601.19;4966579;28;20035;-70
2021/10/18 01:52:55;;;;;;;51.35;33.30;;;8.50;85.30;;;6.75;96.39;96605.44;4976602;28;20042;-70
2021/10/18 01:55:21;;;;;;;105.07;33.25;;;8.60;85.40;;;6.73;96.07;96599.53;4976551;28;20193;-69
2021/10/18 01:57:48;;;;;;;46.00;32.65;;;8.50;85.10;;;6.73;96.07;96602.16;4970972;28;20038;-70
2021/10/18 02:00:14;;;;;;;49.20;31.25;;;8.50;85.30;;;6.73;95.59;96602.16;4991739;28;20041;-70
2021/10/18 02:02:40;;;;;;;38.25;31.08;;;8.50;84.80;;;6.73;95.23;96600.38;4973363;28;20038;-70
2021/10/18 02:05:06;;;;;;;41.33;31.45;;;8.50;84.80;;;6.77;95.50;96611.34;4954078;28;20118;-70
2021/10/18 02:07:32;;;;;;;119.85;31.83;;;8.60;84.90;;;6.78;95.74;96612.97;4989559;28;20574;-70
2021/10/18 02:09:59;;;;;;;74.22;32.78;;;8.60;84.80;;;6.76;95.57;96610.50;4976739;28;20046;-71
2021/10/18 02:12:25;;;;;;;55.85;33.05;;;8.50;85.10;;;6.76;96.22;96615.75;4970010;28;20042;-70
2021/10/18 02:14:51;;;;;;;70.22;34.33;;;8.60;84.90;;;6.75;96.26;96606.25;4984075;28;20439;-69
2021/10/18 02:17:17;;;;;;;87.25;35.05;;;8.60;85.20;;;6.78;96.49;96615.59;4990771;28;20503;-69
2021/10/18 02:19:43;;;;;;;64.68;35.53;;;8.60;85.40;;;6.79;96.58;96605.94;4985570;28;20045;-70
2021/10/18 02:22:08;;;;;;;60.50;33.75;;;8.60;85.20;;;6.82;96.26;96605.66;4970454;28;20376;-70
2021/10/18 02:24:34;;;;;;;74.47;34.65;;;8.60;85.40;;;6.81;96.57;96604.84;4963622;28;20529;-70
2021/10/18 02:27:00;;;;;;;78.35;35.17;;;8.60;85.40;;;6.83;96.34;96612.53;4968749;28;20739;-70
2021/10/18 02:29:25;;;;;;;74.05;34.92;;;8.60;85.20;;;6.85;96.84;96610.59;4967708;28;20053;-69
2021/10/18 02:31:51;;;;;;;47.40;33.00;;;8.60;85.80;;;6.86;97.21;96605.19;4983768;28;20058;-70
2021/10/18 02:34:17;;;;;;;85.63;35.08;;;8.60;85.50;;;6.87;96.83;96606.03;4996678;28;20073;-69
2021/10/18 02:36:42;;;;;;;88.28;36.05;;;8.60;85.70;;;6.87;96.86;96606.03;4993789;28;20085;-70
2021/10/18 02:39:08;;;;;;;44.33;33.65;;;8.60;85.60;;;6.87;97.39;96608.63;4972711;28;20030;-69
2021/10/18 02:41:34;;;;;;;72.78;34.78;;;8.70;85.50;;;6.87;96.95;96603.41;4973728;28;20389;-69
2021/10/18 02:44:00;;;;;;;58.15;35.78;;;8.60;85.80;;;6.87;96.85;96603.41;4959089;28;20108;-70
2021/10/18 02:46:25;;;;;;;57.30;34.35;;;8.60;86.00;;;6.86;97.15;96597.34;4995660;28;20523;-70
2021/10/18 02:48:51;;;;;;;69.78;33.58;;;8.70;85.80;;;6.89;97.21;96606.69;4978667;28;20030;-70
2021/10/18 02:51:17;;;;;;;88.30;33.88;;;8.70;85.80;;;6.88;97.43;96603.25;4996509;28;20516;-69
2021/10/18 02:53:42;;;;;;;72.53;34.72;;;8.60;85.80;;;6.83;97.53;96595.06;5005998;28;20124;-69
2021/10/18 02:56:08;;;;;;;58.28;34.00;;;8.50;86.40;;;6.84;97.63;96598.50;4982309;28;20050;-70
2021/10/18 02:58:34;;;;;;;52.33;34.15;;;8.60;86.50;;;6.82;97.57;96601.25;4978930;28;20035;-70
2021/10/18 03:01:00;;;;;;;64.88;33.08;;;8.60;86.30;;;6.83;97.89;96596.84;4975443;28;20030;-70
2021/10/18 03:03:26;;;;;;;60.75;36.90;;;8.50;86.40;;;6.78;97.73;96599.06;5012201;28;20045;-70
2021/10/18 03:05:51;;;;;;;104.45;34.92;;;8.40;86.80;;;6.77;97.81;96608.72;4977574;28;20097;-69
2021/10/18 03:08:17;;;;;;;90.78;35.72;;;8.30;86.80;;;6.74;97.64;96604.63;4973172;28;20070;-70
2021/10/18 03:10:43;;;;;;;100.93;35.15;;;8.40;86.90;;;6.72;98.14;96606.56;4974367;28;20047;-70
2021/10/18 03:13:09;;;;;;;79.32;33.58;;;8.40;86.70;;;6.69;97.89;96612.09;5008492;28;20531;-69
2021/10/18 03:15:35;;;;;;;66.28;35.05;;;8.30;86.90;;;6.62;98.06;96605.84;4983104;28;20031;-70
2021/10/18 03:18:00;;;;;;;94.40;35.40;;;8.30;87.50;;;6.65;98.17;96617.78;4961440;28;20039;-70
2021/10/18 03:20:26;;;;;;;122.70;32.20;;;8.30;87.30;;;6.63;98.37;96601.44;4964750;28;20065;-70
2021/10/18 03:22:53;;;;;;;100.85;34.30;;;8.20;86.90;;;6.57;98.33;96613.34;4995904;28;20041;-70
2021/10/18 03:25:19;;;;;;;91.65;33.08;;;8.10;87.00;;;6.54;98.29;96623.25;4985311;28;20515;-72
2021/10/18 03:27:44;;;;;;;92.10;34.38;;;8.10;87.20;;;6.50;97.88;96617.50;4971756;28;20045;-72
2021/10/18 03:30:10;;;;;;;60.85;34.28;;;8.10;87.20;;;6.50;98.60;96612.28;4955216;28;20042;-71
2021/10/18 03:32:36;;;;;;;74.97;33.70;;;8.10;87.30;;;6.44;98.38;96618.94;4987924;28;20508;-70
2021/10/18 03:35:03;;;;;;;90.30;34.33;;;8.10;87.20;;;6.45;97.77;96619.75;4992257;28;20041;-68
2021/10/18 03:37:28;;;;;;;92.05;35.42;;;7.90;87.20;;;6.39;98.71;96620.34;4967268;28;20086;-72
2021/10/18 03:39:54;;;;;;;79.10;35.03;;;7.90;87.50;;;6.36;98.82;96636.34;4991845;28;20041;-74
2021/10/18 03:42:20;;;;;;;90.85;35.60;;;7.90;87.50;;;6.36;98.75;96631.13;4987791;28;20566;-73
2021/10/18 03:44:45;;;;;;;75.57;33.85;;;7.90;87.40;;;6.33;98.95;96639.22;4987414;28;20038;-72
2021/10/18 03:47:11;;;;;;;51.33;34.03;;;7.90;87.60;;;6.33;98.79;96639.22;4976253;28;20055;-73
2021/10/18 03:49:37;;;;;;;85.25;34.67;;;8.10;87.30;;;6.37;99.12;96648.44;4973819;28;20031;-73
2021/10/18 03:52:04;;;;;;;107.50;36.33;;;8.10;87.20;;;6.38;99.13;96644.84;4996054;28;20041;-74
2021/10/18 03:54:29;;;;;;;49.95;34.35;;;8.10;87.20;;;6.43;98.74;96655.66;4972228;28;20085;-74
2021/10/18 03:56:55;;;;;;;60.75;34.92;;;8.20;87.10;;;6.44;99.67;96659.91;4987114;28;20526;-73
2021/10/18 03:59:21;;;;;;;84.47;33.08;;;8.20;87.00;;;6.48;99.30;96666.47;4987967;28;20122;-73
2021/10/18 04:01:48;;;;;;;46.50;33.80;;;8.20;86.60;;;6.47;99.65;96667.47;4989590;28;20031;-73
2021/10/18 04:04:14;;;;;;;60.72;34.83;;;8.30;86.70;;;6.51;98.89;96681.88;4970619;28;20077;-72
2021/10/18 04:06:39;;;;;;;46.45;34.60;;;8.30;86.50;;;6.53;99.22;96679.09;4971321;28;20047;-73
2021/10/18 04:09:06;;;;;;;48.15;32.05;;;8.40;86.60;;;6.54;99.41;96676.34;4994671;28;20034;-73
2021/10/18 04:11:38;;;;;;;84.90;33.67;;;8.40;86.50;;;6.56;99.03;96684.84;4963997;28;20038;-73
2021/10/18 04:14:07;;;;;;;85.43;34.67;;;8.20;86.40;;;6.53;98.95;96686.94;4991400;28;20059;-73
2021/10/18 04:16:33;;;;;;;65.95;34.97;;;8.20;86.50;;;6.51;98.81;96681.88;4970401;28;20400;-73
2021/10/18 04:18:59;;;;;;;107.47;34.65;;;8.20;86.60;;;6.49;98.89;96681.19;4965975;28;20130;-74
2021/10/18 04:21:25;;;;;;;75.97;36.40;;;8.20;86.30;;;6.45;98.75;96682.47;4952950;28;20085;-73
2021/10/18 04:23:50;;;;;;;86.38;35.92;;;8.10;87.00;;;6.43;98.97;96684.41;4971370;28;20080;-73
2021/10/18 04:26:16;;;;;;;50.22;33.40;;;8.10;87.10;;;6.43;98.72;96681.81;4942658;28;20033;-73
2021/10/18 04:28:42;;;;;;;49.20;36.35;;;8.20;86.90;;;6.43;99.43;96689.63;4975187;28;20517;-73
2021/10/18 04:31:07;;;;;;;68.13;40.50;;;8.20;86.90;;;6.44;98.91;96691.28;4988860;28;20460;-70
2021/10/18 04:33:33;;;;;;;183.70;32.95;;;8.20;86.90;;;6.47;99.45;96706.66;4988874;28;20042;-73
2021/10/18 04:36:00;;;;;;;95.78;41.03;;;8.20;86.40;;;6.49;98.98;96704.72;4971534;28;20042;-74
2021/10/18 04:38:26;;;;;;;80.97;37.88;;;8.20;86.70;;;6.50;99.24;96710.75;4973425;28;20052;-69
2021/10/18 04:40:52;;;;;;;80.35;35.05;;;8.30;86.70;;;6.54;99.49;96706.88;4938555;28;20034;-69
2021/10/18 04:43:17;;;;;;;51.90;34.40;;;8.30;86.80;;;6.56;99.57;96705.75;4984691;28;20044;-66
2021/10/18 04:45:43;;;;;;;54.70;32.10;;;8.40;86.60;;;6.58;99.16;96711.69;4987343;28;20442;-68
2021/10/18 04:48:09;;;;;;;59.25;37.00;;;8.40;86.50;;;6.57;99.25;96702.19;4983487;28;20050;-69
2021/10/18 04:50:35;;;;;;;58.08;37.80;;;8.40;86.20;;;6.60;98.99;96716.75;4988934;28;20034;-68
2021/10/18 04:53:00;;;;;;;51.83;35.92;;;8.40;86.40;;;6.62;98.86;96715.63;4972891;28;20062;-69
2021/10/18 04:55:26;;;;;;;55.88;36.33;;;8.40;86.30;;;6.64;99.02;96718.91;4972722;28;20041;-69
2021/10/18 04:57:58;;;;;;;67.85;39.05;;;8.50;85.90;;;6.65;99.09;96730.19;4988729;28;20037;-70
2021/10/18 05:00:26;;;;;;;50.38;36.00;;;8.50;85.70;;;6.67;98.25;96734.31;4988859;28;20133;-71
2021/10/18 05:02:52;;;;;;;48.92;32.17;;;8.50;86.00;;;6.68;98.60;96730.72;4982242;28;20157;-71
2021/10/18 05:05:18;;;;;;;63.45;30.23;;;8.50;85.70;;;6.69;98.73;96727.13;4987506;28;20046;-67
2021/10/18 05:07:44;;;;;;;131.27;32.70;;;8.50;85.70;;;6.65;98.91;96717.94;4992155;28;20042;-67
2021/10/18 05:10:13;;;;;;;60.10;33.78;;;8.40;85.60;;;6.68;98.28;96717.66;4995464;28;20038;-68
2021/10/18 05:12:39;;;;;;;69.93;35.10;;;8.40;86.00;;;6.68;98.25;96724.66;4970720;28;20035;-69
2021/10/18 05:15:06;;;;;;;71.25;37.13;;;8.30;86.20;;;6.58;98.44;96716.91;4972317;28;20096;-68
2021/10/18 05:17:33;;;;;;;59.42;36.47;;;8.20;87.00;;;6.59;98.12;96726.41;4955663;28;20042;-68
2021/10/18 05:19:59;;;;;;;61.90;36.65;;;8.30;86.80;;;6.59;99.07;96721.16;4988180;28;20503;-67
2021/10/18 05:22:24;;;;;;;58.55;36.42;;;8.30;86.70;;;6.59;99.15;96726.41;4990005;28;20031;-68
2021/10/18 05:24:50;;;;;;;52.75;33.95;;;8.40;86.60;;;6.60;98.95;96725.41;4986944;28;20385;-70
2021/10/18 05:27:16;;;;;;;46.42;34.05;;;8.40;86.50;;;6.62;99.21;96725.28;4987821;28;20034;-70
2021/10/18 05:29:41;;;;;;;48.00;34.88;;;8.50;86.30;;;6.65;99.06;96733.63;4989471;28;20227;-70
2021/10/18 05:32:07;;;;;;;52.75;35.40;;;8.50;86.40;;;6.67;99.86;96736.09;4993429;28;20081;-69
2021/10/18 05:34:33;;;;;;;52.63;37.75;;;8.50;86.40;;;6.63;98.70;96738.19;4976894;28;20038;-68
2021/10/18 05:36:58;;;;;;;63.03;46.67;;;8.50;86.30;;;6.69;99.61;96742.00;4980633;28;20093;-69
2021/10/18 05:39:24;;;;;;;61.10;36.10;;;8.50;86.40;;;6.74;99.27;96755.44;4987741;28;20458;-70
2021/10/18 05:41:50;;;;;;;72.57;35.22;;;8.60;86.10;;;6.73;99.25;96749.38;4971440;28;20675;-69
2021/10/18 05:44:16;;;;;;;45.85;33.35;;;8.60;85.90;;;6.73;99.19;96754.63;4988045;28;20455;-68
2021/10/18 05:46:41;;;;;;;46.15;32.97;;;8.60;85.80;;;6.78;99.05;96761.19;4988110;28;20046;-70
2021/10/18 05:49:07;;;;;;;49.03;33.00;;;8.60;85.70;;;6.76;99.19;96759.53;4972351;28;20573;-67
2021/10/18 05:51:33;;;;;;;49.35;31.80;;;8.60;85.50;;;6.78;99.09;96767.22;4986861;28;20050;-68
2021/10/18 05:53:59;;;;;;;55.20;32.78;;;8.60;85.70;;;6.80;98.34;96774.97;4971340;28;20094;-70
2021/10/18 05:56:25;;;;;;;58.25;33.67;;;8.60;85.90;;;6.79;98.37;96766.28;4988277;28;20401;-70
2021/10/18 05:58:50;;;;;;;44.88;32.78;;;8.60;85.60;;;6.81;98.88;96773.97;4987731;28;20037;-67
2021/10/18 06:01:16;;;;;;;88.50;62.90;;;8.60;85.70;;;6.81;98.66;96773.97;4972436;28;20512;-68
2021/10/18 06:03:43;;;;;;;69.03;50.00;;;8.60;85.90;;;6.83;98.83;96770.25;4986811;28;20038;-68
2021/10/18 06:06:11;;;;;;;62.80;46.63;;;8.70;86.10;;;6.85;99.48;96764.88;4989790;28;20069;-69
2021/10/18 06:08:36;;;;;;;48.63;37.03;;;8.80;86.20;;;6.87;99.75;96773.38;4988468;28;20050;-68
2021/10/18 06:11:04;;;;;;;45.13;33.63;;;8.80;86.10;;;6.92;99.54;96786.81;4956350;28;20026;-67
2021/10/18 06:13:30;;;;;;;68.80;38.88;;;8.90;85.80;;;6.96;99.71;96786.38;4968534;28;20042;-67
2021/10/18 06:15:55;;;;;;;51.45;35.47;;;8.90;85.90;;;7.00;99.35;96787.72;4940036;28;20045;-69
2021/10/18 06:18:21;;;;;;;47.75;33.80;;;8.90;85.80;;;7.03;99.01;96784.00;4972902;28;20054;-68
2021/10/18 06:20:52;;;;;;;56.08;33.92;;;8.90;85.60;;;7.04;99.05;96793.50;4988107;28;20034;-69
2021/10/18 06:23:19;;;;;;;;;;;9.00;85.50;;;7.04;99.94;96788.25;4971124;28;20062;-68
2021/10/18 06:25:44;;;;;;;51.10;31.92;;;8.90;85.30;;;7.05;98.85;96790.72;4988600;28;19929;-68
2021/10/18 06:28:11;;;;;;;54.67;31.00;;;9.00;85.50;;;7.06;99.06;96794.16;4972302;28;20093;-69
2021/10/18 06:30:37;;;;;;;66.88;33.50;;;9.00;85.60;;;7.05;98.97;96790.72;4955409;28;20093;-68
2021/10/18 06:33:03;;;;;;;59.42;34.13;;;9.00;85.90;;;7.08;98.99;96789.59;4952723;28;20635;-69
2021/10/18 06:35:32;;;;;;;53.00;34.42;;;9.00;85.90;;;7.11;99.46;96791.91;4985625;28;20338;-68
2021/10/18 06:37:58;;;;;;;71.07;35.42;;;9.00;85.90;;;7.15;99.71;96798.47;4969113;28;20531;-67
2021/10/18 06:40:24;;;;;;;57.53;34.83;;;9.10;85.90;;;7.18;99.31;96806.03;4984386;28;20042;-67
2021/10/18 06:42:50;;;;;;;73.22;34.65;;;9.10;85.70;;;7.17;99.30;96814.84;4985128;28;20064;-69
2021/10/18 06:45:15;;;;;;;101.55;32.70;;;9.10;85.70;;;7.21;98.93;96815.38;4951207;28;20045;-68
2021/10/18 06:47:41;;;;;;;75.80;33.95;;;9.10;85.40;;;7.21;98.99;96820.59;5006266;28;20057;-70
2021/10/18 06:50:08;;;;;;;63.78;33.42;;;9.10;85.70;;;7.19;98.63;96812.91;4987697;28;20065;-74
2021/10/18 06:52:36;;;;;;;72.25;33.67;;;9.10;85.30;;;7.21;98.74;96821.41;4968567;28;20448;-69
2021/10/18 06:55:05;;;;;;;66.22;34.55;;;9.10;85.40;;;7.26;98.95;96829.66;4985070;28;20041;-69
2021/10/18 06:57:31;;;;;;;99.75;34.58;;;9.10;85.60;;;7.25;99.03;96828.03;4987256;28;20121;-69
2021/10/18 06:59:58;;;;;;;107.07;32.90;;;9.10;85.30;;;7.24;98.92;96820.28;4957888;28;20038;-69
2021/10/18 07:02:24;;;;;;;106.30;32.55;;;9.20;85.30;;;7.28;98.59;96827.72;4974600;28;20121;-68
2021/10/18 07:04:50;;;;;;;86.07;33.90;;;9.20;85.40;;;7.32;99.08;96844.75;4973429;28;20059;-64
2021/10/18 07:07:16;;;;;;;69.57;32.40;;;9.20;85.30;;;7.34;98.83;96842.00;4973407;28;20073;-69
2021/10/18 07:09:43;;;;;;;79.43;34.05;;;9.20;85.00;;;7.34;98.74;96842.00;4989918;28;20113;-71
2021/10/18 07:12:09;;;;;;;60.03;34.67;;;9.20;84.70;;;7.35;98.43;96838.41;4991507;28;20057;-68
2021/10/18 07:14:35;;;;;;;57.03;32.38;;;9.30;85.00;;;7.37;98.75;96845.13;4946968;28;20034;-69
2021/10/18 07:17:01;;;;;;;61.00;32.70;;;9.30;84.90;;;7.42;98.38;96854.31;4976659;28;20403;-69
2021/10/18 07:19:26;;;;;;;60.08;33.17;;;9.40;84.70;;;7.45;98.45;96852.22;4986694;28;20043;-69
2021/10/18 07:21:52;;;;;;;52.65;31.73;;;9.40;84.90;;;7.50;98.61;96851.78;4973649;28;20026;-69
2021/10/18 07:24:18;;;;;;;48.70;30.23;;;9.50;84.50;;;7.54;98.23;96858.34;4973746;28;20065;-70
2021/10/18 07:26:44;;;;;;;51.17;31.85;;;9.60;84.00;;;7.58;98.16;96854.47;4973014;28;20060;-70
2021/10/18 07:29:11;;;;;;;51.38;32.15;;;9.60;83.90;;;7.61;97.56;96860.22;4989496;28;20081;-68
2021/10/18 07:31:37;;;;;;;47.53;30.88;;;9.70;83.80;;;7.66;97.76;96860.56;4988807;28;20030;-69
2021/10/18 07:34:05;;;;;;;48.00;30.75;;;9.70;83.30;;;7.70;97.32;96857.66;4962579;28;20062;-71
2021/10/18 07:36:32;;;;;;;42.33;30.33;;;9.70;83.10;;;7.76;96.90;96862.28;4991991;28;20042;-70
2021/10/18 07:39:04;;;;;;;51.58;31.77;;;9.80;82.90;;;7.83;97.23;96858.91;4973930;28;20035;-70
2021/10/18 07:41:31;;;;;;;47.30;30.92;;;9.90;83.30;;;7.88;96.78;96861.06;4990418;28;20054;-69
2021/10/18 07:43:57;;;;;;;49.00;32.08;;;9.90;82.90;;;7.88;96.54;96861.88;5004633;28;20484;-69
2021/10/18 07:46:23;;;;;;;49.90;31.30;;;9.90;82.70;;;7.95;96.58;96870.78;4979584;28;20063;-70
2021/10/18 07:48:48;;;;;;;52.55;31.33;;;10.00;82.60;;;7.97;96.55;96876.69;4938124;28;20039;-68
2021/10/18 07:51:14;;;;;;;47.53;31.20;;;9.90;82.70;;;7.98;95.75;96873.09;4927279;28;1039996;-69
2021/10/18 07:53:40;;;;;;;44.38;31.55;;;9.90;82.90;;;8.01;96.36;96873.75;5003869;28;20045;-70
2021/10/18 07:56:06;;;;;;;48.28;30.88;;;10.00;82.70;;;8.04;96.04;96881.31;5003951;28;20038;-68
2021/10/18 07:58:31;;;;;;;44.20;30.42;;;10.00;82.20;;;8.05;95.21;96877.72;4996096;28;20484;-68
2021/10/18 08:00:57;;;;;;;45.90;30.10;;;10.10;81.90;;;8.08;95.57;96878.22;4973881;28;20507;-67
2021/10/18 08:03:23;;;;;;;43.92;29.40;;;10.10;81.70;;;8.07;94.58;96870.50;4996346;28;20424;-68
2021/10/18 08:05:49;;;;;;;44.35;29.20;;;10.10;81.60;;;8.11;94.76;96877.09;4987587;28;20640;-67
2021/10/18 08:08:21;;;;;;;44.85;28.45;;;10.10;81.80;;;8.15;95.35;96873.22;4990035;28;20035;-68
2021/10/18 08:10:48;;;;;;;48.33;29.08;;;10.10;82.00;;;8.21;94.89;96878.63;4943085;28;20084;-69
2021/10/18 08:13:13;;;;;;;43.53;30.20;;;10.10;82.00;;;8.26;94.89;96878.16;4977567;28;20042;-67
2021/10/18 08:15:39;;;;;;;51.83;32.13;;;10.20;81.60;;;8.26;94.18;96886.03;4989668;28;20108;-71
2021/10/18 08:18:05;;;;;;;46.92;31.90;;;10.20;81.70;;;8.26;94.58;96880.78;4973975;28;20692;-72
2021/10/18 08:20:30;;;;;;;50.30;31.23;;;10.10;81.90;;;8.26;94.16;96891.28;4973982;28;20046;-67
2021/10/18 08:22:56;;;;;;;47.72;31.52;;;10.10;81.90;;;8.27;94.15;96890.28;4975123;28;20038;-68
2021/10/18 08:25:22;;;;;;;47.67;31.65;;;10.20;82.30;;;8.20;94.34;96897.13;5004255;28;20073;-70
2021/10/18 08:27:48;;;;;;;43.90;33.42;;;10.00;82.40;;;8.16;94.77;96898.44;5006355;28;20068;-66
2021/10/18 08:30:14;;;;;;;46.13;31.83;;;10.10;82.60;;;8.20;94.72;96907.63;4990983;28;20042;-65
2021/10/18 08:32:40;;;;;;;51.85;31.80;;;10.10;82.70;;;8.14;94.37;96903.78;4991556;28;20638;-68
2021/10/18 08:35:07;;;;;;;48.92;32.53;;;9.90;82.30;;;8.09;93.80;96910.47;4979226;28;20507;-68
2021/10/18 08:40:18;;;;;;;42.28;30.95;;;9.80;83.20;;;8.07;94.95;96915.06;4990063;28;20045;-68
2021/10/18 08:45:19;;;;;;;62.55;30.92;;;10.00;82.80;;;8.12;94.43;96913.63;4970070;28;20624;-65
2021/10/18 08:47:45;;;;;;;62.90;31.65;;;10.00;82.10;;;8.12;94.64;96920.66;4988298;28;20696;-67
2021/10/18 08:50:10;;;;;;;51.40;30.92;;;9.90;82.30;;;8.09;93.97;96916.53;4972862;28;20045;-67
2021/10/18 08:52:40;;;;;;;45.35;30.38;;;9.90;82.10;;;8.07;93.94;96912.44;4973425;28;20058;-72
2021/10/18 08:55:07;;;;;;;42.22;30.20;;;9.90;82.40;;;8.09;94.32;96920.97;4954485;28;20035;-67
2021/10/18 08:57:33;;;;;;;44.00;30.52;;;10.00;82.30;;;8.15;94.07;96915.13;4987556;28;20038;-63
2021/10/18 08:59:58;;;;;;;41.60;29.55;;;10.20;82.10;;;8.22;94.49;96919.59;4990718;28;20034;-68
2021/10/18 09:02:38;;;;;;;40.92;28.67;;;10.40;82.00;;;8.26;94.54;96910.44;4973694;28;20034;-69
2021/10/18 09:05:08;;;;;;;42.20;29.38;;;10.40;81.20;;;8.34;94.47;96914.94;4973644;28;20488;-69
2021/10/18 09:07:37;;;;;;;46.00;28.88;;;10.50;80.80;;;8.41;94.72;96915.97;4989525;28;20483;-69
2021/10/18 09:10:13;;;;;;;42.80;29.63;;;10.50;80.90;;;8.46;94.06;96918.94;4974202;28;20030;-70
2021/10/18 09:12:39;;;;;;;42.60;32.47;;;10.50;80.80;;;8.53;93.37;96908.66;4990390;28;20041;-69
2021/10/18 09:15:25;;;;;;;53.08;36.72;;;10.60;80.40;;;8.57;92.38;96913.41;4989056;28;20030;-70
2021/10/18 09:18:00;;;;;;;47.97;33.33;;;10.60;79.70;;;8.62;93.01;96906.91;4982503;28;20044;-73
2021/10/18 09:20:31;;;;;;;45.88;32.92;;;10.70;80.20;;;8.65;93.43;96909.22;4965336;28;20042;-69
2021/10/18 09:23:25;;;;;;;42.03;28.75;;;10.70;80.50;;;8.70;93.14;96910.38;4983497;28;20069;-70
2021/10/18 09:26:02;;;;;;;45.08;30.15;;;10.80;80.10;;;8.75;93.05;96913.34;4973886;28;20044;-71
2021/10/18 09:28:28;;;;;;;43.08;28.80;;;10.80;80.20;;;8.77;91.88;96915.81;4957794;28;20042;-69
2021/10/18 09:30:54;;;;;;;38.85;27.83;;;10.90;79.80;;;8.75;91.90;96907.28;4969078;28;20113;-70
2021/10/18 09:33:36;;;;;;;56.13;36.33;;;10.80;79.30;;;8.82;91.72;96913.53;4971542;28;20511;-71
2021/10/18 09:36:05;;;;;;;56.05;40.40;;;10.90;79.60;;;8.87;92.14;96913.91;4974525;28;20034;-69
2021/10/18 09:38:31;;;;;;;56.70;34.97;;;11.00;79.40;;;8.83;91.85;96902.09;4972359;28;20042;-69
2021/10/18 09:41:00;;;;;;;40.85;28.63;;;11.00;79.40;;;8.89;92.25;96911.94;4972131;28;20088;-69
2021/10/18 09:46:50;;;;;;;39.13;28.83;;;11.00;79.00;;;8.94;90.92;96907.03;4955585;28;20038;-69
2021/10/18 10:51:39;;;;;;;38.13;28.80;;;11.40;77.40;;;9.31;87.78;96904.03;4992577;28;20100;-69
2021/10/18 10:54:06;;;;;;;38.42;29.58;;;11.30;77.30;;;9.32;89.27;96902.22;4990443;28;20035;-69
2021/10/18 10:56:47;;;;;;;45.20;31.52;;;11.40;77.50;;;9.37;89.49;96899.94;4992245;28;20042;-68
2021/10/18 10:59:23;;;;;;;40.33;30.15;;;11.40;77.50;;;9.42;87.99;96895.00;4985989;28;20072;-67
2021/10/18 11:01:53;;;;;;;36.55;28.27;;;11.60;77.10;;;9.46;88.45;96891.06;4975698;28;20425;-69
2021/10/18 11:04:31;;;;;;;37.17;29.33;;;11.60;77.00;;;9.54;87.35;96896.34;4982256;28;20031;-69
2021/10/18 11:07:01;;;;;;;37.00;28.35;;;11.60;75.90;;;9.54;87.94;96888.47;4989251;28;20523;-68
2021/10/18 11:09:55;;;;;;;38.53;28.17;;;11.60;76.20;;;9.58;86.91;96876.66;4972456;28;20034;-70
2021/10/18 11:12:24;;;;;;;40.88;29.08;;;11.70;76.10;;;9.54;87.93;96880.59;4967382;28;20038;-72
2021/10/18 11:15:24;;;;;;;39.35;30.15;;;11.50;76.30;;;9.55;86.94;96869.09;4971970;28;20030;-69
2021/10/18 11:17:54;;;;;;;38.08;29.38;;;11.60;76.70;;;9.55;87.50;96869.09;4980200;28;20044;-71
2021/10/18 11:20:23;;;;;;;41.35;30.27;;;11.60;76.90;;;9.58;87.89;96871.41;4969416;28;20534;-71
2021/10/18 11:22:56;;;;;;;43.00;29.83;;;11.60;76.50;;;9.62;86.91;96866.63;4974018;28;20116;-70
2021/10/18 11:25:24;;;;;;;39.95;29.77;;;11.60;76.90;;;9.64;87.04;96868.09;4954621;28;20027;-71
2021/10/18 11:27:52;;;;;;;38.53;30.05;;;11.70;76.30;;;9.65;86.91;96863.66;4973305;28;20104;-70